sensor_id;sensor_type;location;lat;lon;timestamp;temperature;humidity
997;DHT22;487;50.126;8.698;2022-11-20T00:01:20;3.60;65.20
997;DHT22;487;50.126;8.698;2022-11-20T00:03:49;3.50;73.60
997;DHT22;487;50.126;8.698;2022-11-20T00:06:19;3.60;76.80
997;DHT22;487;50.126;8.698;2022-11-20T00:08:47;3.60;70.40
997;DHT22;487;50.126;8.698;2022-11-20T00:11:16;3.60;77.20
997;DHT22;487;50.126;8.698;2022-11-20T00:13:49;3.60;75.60
997;DHT22;487;50.126;8.698;2022-11-20T00:16:19;3.60;73.20
997;DHT22;487;50.126;8.698;2022-11-20T00:18:48;3.50;66.60
997;DHT22;487;50.126;8.698;2022-11-20T00:21:17;3.50;73.30
997;DHT22;487;50.126;8.698;2022-11-20T00:23:48;3.50;76.20
997;DHT22;487;50.126;8.698;2022-11-20T00:26:17;3.40;76.80
997;DHT22;487;50.126;8.698;2022-11-20T00:28:52;3.40;75.40
997;DHT22;487;50.126;8.698;2022-11-20T00:31:20;3.40;82.60
997;DHT22;487;50.126;8.698;2022-11-20T00:33:48;3.40;82.50
997;DHT22;487;50.126;8.698;2022-11-20T00:36:17;3.40;83.30
997;DHT22;487;50.126;8.698;2022-11-20T00:38:46;3.40;79.20
997;DHT22;487;50.126;8.698;2022-11-20T00:41:15;3.50;85.90
997;DHT22;487;50.126;8.698;2022-11-20T00:43:44;3.50;85.50
997;DHT22;487;50.126;8.698;2022-11-20T00:46:15;3.50;86.60
997;DHT22;487;50.126;8.698;2022-11-20T00:48:43;3.50;80.40
997;DHT22;487;50.126;8.698;2022-11-20T00:51:13;3.50;87.10
997;DHT22;487;50.126;8.698;2022-11-20T00:53:41;3.50;90.20
997;DHT22;487;50.126;8.698;2022-11-20T00:56:11;3.50;84.50
997;DHT22;487;50.126;8.698;2022-11-20T00:58:40;3.50;74.60
997;DHT22;487;50.126;8.698;2022-11-20T05:01:04;3.30;40.60
997;DHT22;487;50.126;8.698;2022-11-20T05:03:33;3.30;44.40
997;DHT22;487;50.126;8.698;2022-11-20T05:06:08;3.30;60.80
997;DHT22;487;50.126;8.698;2022-11-20T05:08:36;3.20;70.00
997;DHT22;487;50.126;8.698;2022-11-20T05:11:06;3.20;75.10
997;DHT22;487;50.126;8.698;2022-11-20T05:13:34;3.20;83.50
997;DHT22;487;50.126;8.698;2022-11-20T05:16:05;3.20;82.80
997;DHT22;487;50.126;8.698;2022-11-20T05:18:34;3.20;92.60
997;DHT22;487;50.126;8.698;2022-11-20T05:21:02;3.20;93.20
997;DHT22;487;50.126;8.698;2022-11-20T05:23:31;3.20;95.00
997;DHT22;487;50.126;8.698;2022-11-20T05:26:00;3.20;94.90
997;DHT22;487;50.126;8.698;2022-11-20T05:28:29;3.20;98.40
997;DHT22;487;50.126;8.698;2022-11-20T05:31:06;3.30;96.40
997;DHT22;487;50.126;8.698;2022-11-20T05:33:34;3.20;99.50
997;DHT22;487;50.126;8.698;2022-11-20T05:36:03;3.30;98.00
997;DHT22;487;50.126;8.698;2022-11-20T05:38:31;3.30;99.90
997;DHT22;487;50.126;8.698;2022-11-20T05:41:03;3.30;99.70
997;DHT22;487;50.126;8.698;2022-11-20T05:46:01;3.30;99.90
997;DHT22;487;50.126;8.698;2022-11-20T05:48:30;3.40;99.90
997;DHT22;487;50.126;8.698;2022-11-20T05:50:59;3.40;99.90
997;DHT22;487;50.126;8.698;2022-11-20T05:53:27;3.40;99.90
997;DHT22;487;50.126;8.698;2022-11-20T05:55:59;3.40;99.90
997;DHT22;487;50.126;8.698;2022-11-20T05:58:27;3.40;99.90
997;DHT22;487;50.126;8.698;2022-11-20T06:01:03;3.50;99.90
997;DHT22;487;50.126;8.698;2022-11-20T06:03:33;3.50;99.90
997;DHT22;487;50.126;8.698;2022-11-20T06:06:01;3.40;99.90
997;DHT22;487;50.126;8.698;2022-11-20T06:08:29;3.50;99.90
997;DHT22;487;50.126;8.698;2022-11-20T06:10:57;3.50;99.90
997;DHT22;487;50.126;8.698;2022-11-20T06:13:25;3.50;99.90
997;DHT22;487;50.126;8.698;2022-11-20T06:15:54;3.50;99.90
997;DHT22;487;50.126;8.698;2022-11-20T06:18:21;3.50;99.90
997;DHT22;487;50.126;8.698;2022-11-20T06:20:59;3.50;99.90
997;DHT22;487;50.126;8.698;2022-11-20T06:23:28;3.50;99.90
997;DHT22;487;50.126;8.698;2022-11-20T06:25:56;3.50;99.90
997;DHT22;487;50.126;8.698;2022-11-20T06:28:24;3.40;99.90
997;DHT22;487;50.126;8.698;2022-11-20T06:30:53;3.50;99.90
997;DHT22;487;50.126;8.698;2022-11-20T06:33:21;3.50;99.90
997;DHT22;487;50.126;8.698;2022-11-20T06:35:49;3.40;99.90
997;DHT22;487;50.126;8.698;2022-11-20T06:38:25;3.40;99.90
997;DHT22;487;50.126;8.698;2022-11-20T06:40:54;3.30;99.90
997;DHT22;487;50.126;8.698;2022-11-20T06:43:22;3.30;99.90
997;DHT22;487;50.126;8.698;2022-11-20T06:45:52;3.30;99.90
997;DHT22;487;50.126;8.698;2022-11-20T06:48:20;3.30;99.90
997;DHT22;487;50.126;8.698;2022-11-20T06:50:48;3.30;99.90
997;DHT22;487;50.126;8.698;2022-11-20T06:53:16;3.30;99.90
997;DHT22;487;50.126;8.698;2022-11-20T06:55:46;3.30;99.90
997;DHT22;487;50.126;8.698;2022-11-20T06:58:15;3.20;99.90
997;DHT22;487;50.126;8.698;2022-11-20T07:00:44;3.20;99.90
997;DHT22;487;50.126;8.698;2022-11-20T07:03:12;3.20;99.90
997;DHT22;487;50.126;8.698;2022-11-20T07:05:40;3.20;99.90
997;DHT22;487;50.126;8.698;2022-11-20T07:08:08;3.20;99.90
997;DHT22;487;50.126;8.698;2022-11-20T07:10:36;3.20;99.90
997;DHT22;487;50.126;8.698;2022-11-20T07:13:05;3.20;99.90
997;DHT22;487;50.126;8.698;2022-11-20T07:15:33;3.20;99.90
997;DHT22;487;50.126;8.698;2022-11-20T07:18:02;3.30;99.90
997;DHT22;487;50.126;8.698;2022-11-20T07:20:29;3.30;99.90
997;DHT22;487;50.126;8.698;2022-11-20T07:22:58;3.30;99.90
997;DHT22;487;50.126;8.698;2022-11-20T07:25:27;3.40;99.90
997;DHT22;487;50.126;8.698;2022-11-20T07:27:57;3.40;99.90
997;DHT22;487;50.126;8.698;2022-11-20T07:30:26;3.40;99.90
997;DHT22;487;50.126;8.698;2022-11-20T07:32:55;3.50;99.90
997;DHT22;487;50.126;8.698;2022-11-20T07:35:23;3.50;99.90
997;DHT22;487;50.126;8.698;2022-11-20T07:37:51;3.50;99.90
997;DHT22;487;50.126;8.698;2022-11-20T07:40:19;3.60;99.90
997;DHT22;487;50.126;8.698;2022-11-20T07:42:47;3.60;99.90
997;DHT22;487;50.126;8.698;2022-11-20T07:45:16;3.60;99.90
997;DHT22;487;50.126;8.698;2022-11-20T07:47:45;3.70;99.90
997;DHT22;487;50.126;8.698;2022-11-20T07:50:14;3.70;99.90
997;DHT22;487;50.126;8.698;2022-11-20T07:52:42;3.70;99.90
997;DHT22;487;50.126;8.698;2022-11-20T07:55:10;3.70;99.90
997;DHT22;487;50.126;8.698;2022-11-20T07:57:38;3.70;99.90
997;DHT22;487;50.126;8.698;2022-11-20T08:00:09;3.80;99.90
997;DHT22;487;50.126;8.698;2022-11-20T08:02:37;3.80;99.90
997;DHT22;487;50.126;8.698;2022-11-20T08:05:08;3.80;99.90
997;DHT22;487;50.126;8.698;2022-11-20T08:07:37;3.80;99.90
997;DHT22;487;50.126;8.698;2022-11-20T08:10:06;3.90;99.90
997;DHT22;487;50.126;8.698;2022-11-20T08:12:34;3.90;99.90
997;DHT22;487;50.126;8.698;2022-11-20T08:15:20;4.00;99.90
997;DHT22;487;50.126;8.698;2022-11-20T08:17:48;4.00;99.90
997;DHT22;487;50.126;8.698;2022-11-20T08:20:37;4.00;99.90
997;DHT22;487;50.126;8.698;2022-11-20T08:23:07;4.00;99.90
997;DHT22;487;50.126;8.698;2022-11-20T08:25:36;4.00;99.90
997;DHT22;487;50.126;8.698;2022-11-20T08:28:05;4.00;99.90
997;DHT22;487;50.126;8.698;2022-11-20T08:30:46;4.00;99.90
997;DHT22;487;50.126;8.698;2022-11-20T08:33:14;5.80;99.90
997;DHT22;487;50.126;8.698;2022-11-20T08:35:45;4.00;99.90
997;DHT22;487;50.126;8.698;2022-11-20T08:38:13;4.10;99.90
997;DHT22;487;50.126;8.698;2022-11-20T08:40:41;4.20;99.90
997;DHT22;487;50.126;8.698;2022-11-20T08:43:28;4.20;99.90
997;DHT22;487;50.126;8.698;2022-11-20T08:45:56;4.10;99.90
997;DHT22;487;50.126;8.698;2022-11-20T08:48:24;4.20;99.90
997;DHT22;487;50.126;8.698;2022-11-20T08:50:53;4.20;99.90
997;DHT22;487;50.126;8.698;2022-11-20T08:53:24;4.20;99.90
997;DHT22;487;50.126;8.698;2022-11-20T08:55:53;4.20;99.90
997;DHT22;487;50.126;8.698;2022-11-20T08:58:21;4.20;99.90
997;DHT22;487;50.126;8.698;2022-11-20T09:00:49;4.20;99.90
997;DHT22;487;50.126;8.698;2022-11-20T09:05:45;4.30;99.90
997;DHT22;487;50.126;8.698;2022-11-20T09:08:14;4.30;99.90
997;DHT22;487;50.126;8.698;2022-11-20T09:10:42;4.30;99.90
997;DHT22;487;50.126;8.698;2022-11-20T09:13:09;4.30;99.90
997;DHT22;487;50.126;8.698;2022-11-20T09:15:37;4.30;99.90
997;DHT22;487;50.126;8.698;2022-11-20T09:18:05;4.40;99.90
997;DHT22;487;50.126;8.698;2022-11-20T09:20:33;4.40;99.90
997;DHT22;487;50.126;8.698;2022-11-20T09:23:02;4.30;99.90
997;DHT22;487;50.126;8.698;2022-11-20T09:25:31;4.40;99.90
997;DHT22;487;50.126;8.698;2022-11-20T09:27:59;4.40;99.90
997;DHT22;487;50.126;8.698;2022-11-20T09:30:27;4.40;99.90
997;DHT22;487;50.126;8.698;2022-11-20T09:32:55;4.50;99.90
997;DHT22;487;50.126;8.698;2022-11-20T09:35:23;4.50;99.90
997;DHT22;487;50.126;8.698;2022-11-20T09:37:51;4.60;99.90
997;DHT22;487;50.126;8.698;2022-11-20T09:40:21;4.60;99.90
997;DHT22;487;50.126;8.698;2022-11-20T09:42:55;4.80;99.90
997;DHT22;487;50.126;8.698;2022-11-20T09:45:37;4.90;99.90
997;DHT22;487;50.126;8.698;2022-11-20T09:48:30;4.90;99.90
997;DHT22;487;50.126;8.698;2022-11-20T09:51:07;4.80;99.90
997;DHT22;487;50.126;8.698;2022-11-20T09:53:46;4.80;99.90
997;DHT22;487;50.126;8.698;2022-11-20T09:56:20;4.90;99.90
997;DHT22;487;50.126;8.698;2022-11-20T09:58:51;4.90;99.90
997;DHT22;487;50.126;8.698;2022-11-20T10:01:23;5.00;99.90
997;DHT22;487;50.126;8.698;2022-11-20T10:03:57;5.20;99.90
997;DHT22;487;50.126;8.698;2022-11-20T10:06:30;5.20;99.90
997;DHT22;487;50.126;8.698;2022-11-20T10:09:05;5.20;99.90
997;DHT22;487;50.126;8.698;2022-11-20T10:11:42;5.30;99.90
997;DHT22;487;50.126;8.698;2022-11-20T10:14:23;5.30;99.90
997;DHT22;487;50.126;8.698;2022-11-20T10:17:02;5.30;99.90
997;DHT22;487;50.126;8.698;2022-11-20T10:19:44;5.40;99.90
997;DHT22;487;50.126;8.698;2022-11-20T10:22:26;5.40;99.90
997;DHT22;487;50.126;8.698;2022-11-20T10:25:05;5.40;99.90
997;DHT22;487;50.126;8.698;2022-11-20T10:30:45;5.50;99.90
997;DHT22;487;50.126;8.698;2022-11-20T10:36:26;5.60;99.90
997;DHT22;487;50.126;8.698;2022-11-20T10:41:28;5.40;99.90
997;DHT22;487;50.126;8.698;2022-11-20T10:44:05;5.20;99.90
997;DHT22;487;50.126;8.698;2022-11-20T10:46:41;5.00;99.90
997;DHT22;487;50.126;8.698;2022-11-20T10:49:12;5.00;99.90
997;DHT22;487;50.126;8.698;2022-11-20T10:51:53;4.90;99.90
997;DHT22;487;50.126;8.698;2022-11-20T10:54:33;5.00;99.90
997;DHT22;487;50.126;8.698;2022-11-20T10:57:08;5.00;99.90
997;DHT22;487;50.126;8.698;2022-11-20T10:59:56;5.10;99.90
997;DHT22;487;50.126;8.698;2022-11-20T11:02:33;5.20;99.90
997;DHT22;487;50.126;8.698;2022-11-20T11:05:10;5.20;99.90
997;DHT22;487;50.126;8.698;2022-11-20T11:07:40;5.20;99.90
997;DHT22;487;50.126;8.698;2022-11-20T11:10:15;5.30;99.90
997;DHT22;487;50.126;8.698;2022-11-20T11:12:45;5.40;99.90
997;DHT22;487;50.126;8.698;2022-11-20T11:15:25;5.50;99.90
997;DHT22;487;50.126;8.698;2022-11-20T11:17:55;5.50;99.90
997;DHT22;487;50.126;8.698;2022-11-20T11:20:25;5.50;99.90
997;DHT22;487;50.126;8.698;2022-11-20T11:22:54;5.40;99.90
997;DHT22;487;50.126;8.698;2022-11-20T11:25:28;5.50;99.90
997;DHT22;487;50.126;8.698;2022-11-20T11:27:58;5.50;99.90
997;DHT22;487;50.126;8.698;2022-11-20T11:30:27;5.50;99.90
997;DHT22;487;50.126;8.698;2022-11-20T11:33:05;5.50;99.90
997;DHT22;487;50.126;8.698;2022-11-20T11:35:43;5.50;99.90
997;DHT22;487;50.126;8.698;2022-11-20T11:38:21;5.60;99.90
997;DHT22;487;50.126;8.698;2022-11-20T11:40:49;5.50;99.90
997;DHT22;487;50.126;8.698;2022-11-20T11:43:20;5.50;99.90
997;DHT22;487;50.126;8.698;2022-11-20T11:46:30;5.50;99.90
997;DHT22;487;50.126;8.698;2022-11-20T11:49:01;5.60;99.90
997;DHT22;487;50.126;8.698;2022-11-20T11:51:47;5.70;99.90
997;DHT22;487;50.126;8.698;2022-11-20T11:54:23;5.70;99.90
997;DHT22;487;50.126;8.698;2022-11-20T11:56:53;5.80;99.90
997;DHT22;487;50.126;8.698;2022-11-20T11:59:27;5.90;99.90
997;DHT22;487;50.126;8.698;2022-11-20T12:01:59;5.90;99.90
997;DHT22;487;50.126;8.698;2022-11-20T12:04:42;6.00;99.90
997;DHT22;487;50.126;8.698;2022-11-20T12:07:15;6.10;99.90
997;DHT22;487;50.126;8.698;2022-11-20T12:10:08;6.20;99.90
997;DHT22;487;50.126;8.698;2022-11-20T12:12:44;6.30;99.90
997;DHT22;487;50.126;8.698;2022-11-20T12:15:19;6.40;99.90
997;DHT22;487;50.126;8.698;2022-11-20T12:17:49;6.60;99.90
997;DHT22;487;50.126;8.698;2022-11-20T12:20:19;6.70;99.90
997;DHT22;487;50.126;8.698;2022-11-20T12:22:53;6.70;99.90
997;DHT22;487;50.126;8.698;2022-11-20T12:25:26;6.70;99.90
997;DHT22;487;50.126;8.698;2022-11-20T12:31:02;6.70;99.90
997;DHT22;487;50.126;8.698;2022-11-20T12:33:53;6.70;99.90
997;DHT22;487;50.126;8.698;2022-11-20T12:36:35;6.70;99.90
997;DHT22;487;50.126;8.698;2022-11-20T12:39:17;6.70;99.90
997;DHT22;487;50.126;8.698;2022-11-20T12:42:01;6.70;99.90
997;DHT22;487;50.126;8.698;2022-11-20T12:45:22;6.60;99.90
997;DHT22;487;50.126;8.698;2022-11-20T12:48:12;6.60;99.90
997;DHT22;487;50.126;8.698;2022-11-20T12:50:51;6.60;99.90
997;DHT22;487;50.126;8.698;2022-11-20T12:53:47;6.60;99.90
997;DHT22;487;50.126;8.698;2022-11-20T12:56:27;6.60;99.90
997;DHT22;487;50.126;8.698;2022-11-20T12:59:05;6.70;99.90
997;DHT22;487;50.126;8.698;2022-11-20T13:01:40;6.70;99.90
997;DHT22;487;50.126;8.698;2022-11-20T13:04:19;6.70;99.90
997;DHT22;487;50.126;8.698;2022-11-20T13:06:51;6.70;99.90
997;DHT22;487;50.126;8.698;2022-11-20T13:09:22;6.70;99.90
997;DHT22;487;50.126;8.698;2022-11-20T13:11:55;6.70;99.90
997;DHT22;487;50.126;8.698;2022-11-20T13:14:30;6.70;99.90
997;DHT22;487;50.126;8.698;2022-11-20T13:17:02;6.60;99.90
997;DHT22;487;50.126;8.698;2022-11-20T13:19:33;6.60;99.90
997;DHT22;487;50.126;8.698;2022-11-20T13:22:01;6.60;99.90
997;DHT22;487;50.126;8.698;2022-11-20T13:24:31;6.60;99.90
997;DHT22;487;50.126;8.698;2022-11-20T13:27:01;6.60;99.90
997;DHT22;487;50.126;8.698;2022-11-20T13:29:30;6.60;99.90
997;DHT22;487;50.126;8.698;2022-11-20T13:32:06;6.60;99.90
997;DHT22;487;50.126;8.698;2022-11-20T13:34:35;6.50;99.90
997;DHT22;487;50.126;8.698;2022-11-20T13:37:03;6.50;99.90
997;DHT22;487;50.126;8.698;2022-11-20T13:39:34;6.50;99.90
997;DHT22;487;50.126;8.698;2022-11-20T13:42:20;6.50;99.90
997;DHT22;487;50.126;8.698;2022-11-20T13:44:53;6.50;99.90
997;DHT22;487;50.126;8.698;2022-11-20T13:47:23;6.50;99.90
997;DHT22;487;50.126;8.698;2022-11-20T13:49:53;6.50;99.90
997;DHT22;487;50.126;8.698;2022-11-20T13:52:35;6.50;99.90
997;DHT22;487;50.126;8.698;2022-11-20T13:55:17;6.50;99.90
997;DHT22;487;50.126;8.698;2022-11-20T13:58:07;6.40;99.90
997;DHT22;487;50.126;8.698;2022-11-20T14:00:44;6.50;99.90
997;DHT22;487;50.126;8.698;2022-11-20T14:03:18;6.40;99.90
997;DHT22;487;50.126;8.698;2022-11-20T14:06:12;6.40;99.90
997;DHT22;487;50.126;8.698;2022-11-20T14:08:44;6.40;99.90
997;DHT22;487;50.126;8.698;2022-11-20T14:11:16;6.40;99.90
997;DHT22;487;50.126;8.698;2022-11-20T14:13:59;6.40;99.90
997;DHT22;487;50.126;8.698;2022-11-20T14:16:30;6.40;99.90
997;DHT22;487;50.126;8.698;2022-11-20T14:19:22;6.40;99.90
997;DHT22;487;50.126;8.698;2022-11-20T14:21:53;6.40;99.90
997;DHT22;487;50.126;8.698;2022-11-20T14:24:23;6.40;99.90
997;DHT22;487;50.126;8.698;2022-11-20T14:26:53;6.40;99.90
997;DHT22;487;50.126;8.698;2022-11-20T14:29:23;6.40;99.90
997;DHT22;487;50.126;8.698;2022-11-20T14:31:55;6.40;99.90
997;DHT22;487;50.126;8.698;2022-11-20T14:34:25;6.50;99.90
997;DHT22;487;50.126;8.698;2022-11-20T14:36:58;6.50;99.90
997;DHT22;487;50.126;8.698;2022-11-20T14:39:30;6.50;99.90
997;DHT22;487;50.126;8.698;2022-11-20T14:41:59;6.50;99.90
997;DHT22;487;50.126;8.698;2022-11-20T14:44:30;6.40;99.90
997;DHT22;487;50.126;8.698;2022-11-20T14:47:00;6.40;99.90
997;DHT22;487;50.126;8.698;2022-11-20T14:49:30;6.40;99.90
997;DHT22;487;50.126;8.698;2022-11-20T14:52:10;6.50;99.90
997;DHT22;487;50.126;8.698;2022-11-20T14:57:23;6.50;99.90
997;DHT22;487;50.126;8.698;2022-11-20T14:59:51;6.50;99.90
997;DHT22;487;50.126;8.698;2022-11-20T15:02:19;6.50;99.90
997;DHT22;487;50.126;8.698;2022-11-20T15:04:47;6.40;99.90
997;DHT22;487;50.126;8.698;2022-11-20T15:07:25;6.40;99.90
997;DHT22;487;50.126;8.698;2022-11-20T15:10:05;6.40;99.90
997;DHT22;487;50.126;8.698;2022-11-20T15:12:37;6.40;99.90
997;DHT22;487;50.126;8.698;2022-11-20T15:15:08;6.40;99.90
997;DHT22;487;50.126;8.698;2022-11-20T15:17:40;6.40;99.90
997;DHT22;487;50.126;8.698;2022-11-20T15:20:12;6.40;99.90
997;DHT22;487;50.126;8.698;2022-11-20T15:22:41;6.40;99.90
997;DHT22;487;50.126;8.698;2022-11-20T15:25:12;6.40;99.90
997;DHT22;487;50.126;8.698;2022-11-20T15:27:42;6.50;99.90
997;DHT22;487;50.126;8.698;2022-11-20T15:30:15;6.50;99.90
997;DHT22;487;50.126;8.698;2022-11-20T15:32:44;6.50;99.90
997;DHT22;487;50.126;8.698;2022-11-20T15:35:13;6.50;99.90
997;DHT22;487;50.126;8.698;2022-11-20T15:37:41;6.50;99.90
997;DHT22;487;50.126;8.698;2022-11-20T15:40:10;6.60;99.90
997;DHT22;487;50.126;8.698;2022-11-20T15:42:38;6.60;99.90
997;DHT22;487;50.126;8.698;2022-11-20T15:45:29;6.50;99.90
997;DHT22;487;50.126;8.698;2022-11-20T15:47:59;6.50;99.90
997;DHT22;487;50.126;8.698;2022-11-20T15:50:33;6.60;99.90
997;DHT22;487;50.126;8.698;2022-11-20T15:53:04;6.60;99.90
997;DHT22;487;50.126;8.698;2022-11-20T15:55:32;6.60;99.90
997;DHT22;487;50.126;8.698;2022-11-20T15:58:00;6.60;99.90
997;DHT22;487;50.126;8.698;2022-11-20T16:00:29;6.60;99.90
997;DHT22;487;50.126;8.698;2022-11-20T16:02:57;6.60;99.90
997;DHT22;487;50.126;8.698;2022-11-20T16:05:28;6.60;99.90
997;DHT22;487;50.126;8.698;2022-11-20T16:07:56;6.60;99.90
997;DHT22;487;50.126;8.698;2022-11-20T16:10:24;6.60;99.90
997;DHT22;487;50.126;8.698;2022-11-20T16:12:52;6.60;99.90
997;DHT22;487;50.126;8.698;2022-11-20T16:15:39;6.60;99.90
997;DHT22;487;50.126;8.698;2022-11-20T16:18:15;6.60;99.90
997;DHT22;487;50.126;8.698;2022-11-20T16:20:43;6.70;99.90
997;DHT22;487;50.126;8.698;2022-11-20T16:23:11;6.70;99.90
997;DHT22;487;50.126;8.698;2022-11-20T16:25:39;6.60;99.90
997;DHT22;487;50.126;8.698;2022-11-20T16:28:07;6.60;99.90
997;DHT22;487;50.126;8.698;2022-11-20T16:30:41;6.60;99.90
997;DHT22;487;50.126;8.698;2022-11-20T16:33:10;6.60;99.90
997;DHT22;487;50.126;8.698;2022-11-20T16:35:39;6.60;99.90
997;DHT22;487;50.126;8.698;2022-11-20T16:38:07;6.60;99.90
997;DHT22;487;50.126;8.698;2022-11-20T16:40:35;6.60;99.90
997;DHT22;487;50.126;8.698;2022-11-20T16:43:08;6.60;99.90
997;DHT22;487;50.126;8.698;2022-11-20T16:45:42;6.60;99.90
997;DHT22;487;50.126;8.698;2022-11-20T16:48:15;6.50;99.90
997;DHT22;487;50.126;8.698;2022-11-20T16:50:47;6.60;99.90
997;DHT22;487;50.126;8.698;2022-11-20T16:53:16;6.60;99.90
997;DHT22;487;50.126;8.698;2022-11-20T16:55:44;6.50;99.90
997;DHT22;487;50.126;8.698;2022-11-20T16:58:12;6.60;99.90
997;DHT22;487;50.126;8.698;2022-11-20T17:00:42;6.60;99.90
997;DHT22;487;50.126;8.698;2022-11-20T17:03:17;6.50;99.90
997;DHT22;487;50.126;8.698;2022-11-20T17:05:46;6.50;99.90
997;DHT22;487;50.126;8.698;2022-11-20T17:08:14;6.60;99.90
997;DHT22;487;50.126;8.698;2022-11-20T17:10:41;6.60;99.90
997;DHT22;487;50.126;8.698;2022-11-20T17:13:09;6.60;99.90
997;DHT22;487;50.126;8.698;2022-11-20T17:15:37;6.60;99.90
997;DHT22;487;50.126;8.698;2022-11-20T17:18:06;6.60;99.90
997;DHT22;487;50.126;8.698;2022-11-20T17:20:34;6.60;99.90
997;DHT22;487;50.126;8.698;2022-11-20T17:23:02;6.70;99.90
997;DHT22;487;50.126;8.698;2022-11-20T17:25:31;6.70;99.90
997;DHT22;487;50.126;8.698;2022-11-20T17:28:00;6.70;99.90
997;DHT22;487;50.126;8.698;2022-11-20T17:30:27;6.70;99.90
997;DHT22;487;50.126;8.698;2022-11-20T17:32:55;6.70;99.90
997;DHT22;487;50.126;8.698;2022-11-20T17:35:24;6.70;99.90
997;DHT22;487;50.126;8.698;2022-11-20T17:37:52;6.70;99.90
997;DHT22;487;50.126;8.698;2022-11-20T17:40:20;6.70;99.90
997;DHT22;487;50.126;8.698;2022-11-20T17:42:53;6.70;99.90
997;DHT22;487;50.126;8.698;2022-11-20T17:45:21;6.70;99.90
997;DHT22;487;50.126;8.698;2022-11-20T17:47:48;6.70;99.90
997;DHT22;487;50.126;8.698;2022-11-20T17:50:16;6.80;99.90
997;DHT22;487;50.126;8.698;2022-11-20T17:52:45;6.80;99.90
997;DHT22;487;50.126;8.698;2022-11-20T17:55:14;6.80;99.90
997;DHT22;487;50.126;8.698;2022-11-20T17:57:41;6.80;99.90
997;DHT22;487;50.126;8.698;2022-11-20T18:00:23;6.80;99.90
997;DHT22;487;50.126;8.698;2022-11-20T18:02:52;6.80;99.90
997;DHT22;487;50.126;8.698;2022-11-20T18:05:20;6.80;99.90
997;DHT22;487;50.126;8.698;2022-11-20T18:07:52;6.80;99.90
997;DHT22;487;50.126;8.698;2022-11-20T18:10:20;6.90;99.90
997;DHT22;487;50.126;8.698;2022-11-20T18:12:48;6.90;99.90
997;DHT22;487;50.126;8.698;2022-11-20T18:15:16;6.80;99.90
997;DHT22;487;50.126;8.698;2022-11-20T18:17:44;6.80;99.90
997;DHT22;487;50.126;8.698;2022-11-20T18:20:12;6.90;99.90
997;DHT22;487;50.126;8.698;2022-11-20T18:22:57;6.90;99.90
997;DHT22;487;50.126;8.698;2022-11-20T18:25:25;8.80;99.90
997;DHT22;487;50.126;8.698;2022-11-20T18:27:53;6.90;99.90
997;DHT22;487;50.126;8.698;2022-11-20T18:30:21;6.90;99.90
997;DHT22;487;50.126;8.698;2022-11-20T18:32:50;6.80;99.90
997;DHT22;487;50.126;8.698;2022-11-20T18:35:17;6.80;99.90
997;DHT22;487;50.126;8.698;2022-11-20T18:37:45;6.90;99.90
997;DHT22;487;50.126;8.698;2022-11-20T18:40:14;6.90;99.90
997;DHT22;487;50.126;8.698;2022-11-20T18:42:42;6.90;99.90
997;DHT22;487;50.126;8.698;2022-11-20T18:45:27;6.90;99.90
997;DHT22;487;50.126;8.698;2022-11-20T18:47:55;7.00;99.90
997;DHT22;487;50.126;8.698;2022-11-20T18:50:23;7.00;99.90
997;DHT22;487;50.126;8.698;2022-11-20T18:52:51;7.00;99.90
997;DHT22;487;50.126;8.698;2022-11-20T18:55:20;7.00;99.90
997;DHT22;487;50.126;8.698;2022-11-20T18:57:50;7.00;99.90
997;DHT22;487;50.126;8.698;2022-11-20T19:00:19;7.00;99.90
997;DHT22;487;50.126;8.698;2022-11-20T19:02:47;7.00;99.90
997;DHT22;487;50.126;8.698;2022-11-20T19:05:18;7.00;99.90
997;DHT22;487;50.126;8.698;2022-11-20T19:07:46;7.00;99.90
997;DHT22;487;50.126;8.698;2022-11-20T19:10:17;7.00;99.90
997;DHT22;487;50.126;8.698;2022-11-20T19:12:47;7.00;99.90
997;DHT22;487;50.126;8.698;2022-11-20T19:15:15;7.00;99.90
997;DHT22;487;50.126;8.698;2022-11-20T19:17:42;7.00;99.90
997;DHT22;487;50.126;8.698;2022-11-20T19:20:10;7.00;99.90
997;DHT22;487;50.126;8.698;2022-11-20T19:22:38;7.00;99.90
997;DHT22;487;50.126;8.698;2022-11-20T19:25:07;7.00;99.90
997;DHT22;487;50.126;8.698;2022-11-20T19:27:34;6.90;99.90
997;DHT22;487;50.126;8.698;2022-11-20T19:30:04;6.90;99.90
997;DHT22;487;50.126;8.698;2022-11-20T19:32:32;6.90;99.90
997;DHT22;487;50.126;8.698;2022-11-20T19:35:00;6.90;99.90
997;DHT22;487;50.126;8.698;2022-11-20T19:37:31;6.80;99.90
997;DHT22;487;50.126;8.698;2022-11-20T19:39:59;6.70;99.90
997;DHT22;487;50.126;8.698;2022-11-20T19:42:29;6.70;99.90
997;DHT22;487;50.126;8.698;2022-11-20T19:44:57;6.70;99.90
997;DHT22;487;50.126;8.698;2022-11-20T19:47:26;6.80;1.00
997;DHT22;487;50.126;8.698;2022-11-20T19:50:14;6.80;1.00
997;DHT22;487;50.126;8.698;2022-11-20T19:52:42;6.80;1.00
997;DHT22;487;50.126;8.698;2022-11-20T19:55:10;6.80;1.00
997;DHT22;487;50.126;8.698;2022-11-20T19:57:38;6.80;1.00
997;DHT22;487;50.126;8.698;2022-11-20T20:00:07;6.80;1.00
997;DHT22;487;50.126;8.698;2022-11-20T20:02:36;6.80;1.00
997;DHT22;487;50.126;8.698;2022-11-20T20:05:05;6.80;1.00
997;DHT22;487;50.126;8.698;2022-11-20T20:07:32;6.80;1.00
997;DHT22;487;50.126;8.698;2022-11-20T20:10:00;6.80;1.00
997;DHT22;487;50.126;8.698;2022-11-20T20:12:28;6.80;1.00
997;DHT22;487;50.126;8.698;2022-11-20T20:14:56;6.70;1.00
997;DHT22;487;50.126;8.698;2022-11-20T20:17:24;6.70;1.00
997;DHT22;487;50.126;8.698;2022-11-20T20:19:53;6.70;1.00
997;DHT22;487;50.126;8.698;2022-11-20T20:22:21;6.70;1.00
997;DHT22;487;50.126;8.698;2022-11-20T20:24:49;6.70;1.00
997;DHT22;487;50.126;8.698;2022-11-20T20:27:17;6.70;1.00
997;DHT22;487;50.126;8.698;2022-11-20T20:29:45;6.70;1.00
997;DHT22;487;50.126;8.698;2022-11-20T20:32:13;6.70;1.00
997;DHT22;487;50.126;8.698;2022-11-20T20:34:41;6.70;1.00
997;DHT22;487;50.126;8.698;2022-11-20T20:37:10;6.70;1.00
997;DHT22;487;50.126;8.698;2022-11-20T20:39:38;6.70;1.00
997;DHT22;487;50.126;8.698;2022-11-20T20:42:05;6.60;1.00
997;DHT22;487;50.126;8.698;2022-11-20T20:44:33;8.10;1.00
997;DHT22;487;50.126;8.698;2022-11-20T20:47:19;6.70;1.00
997;DHT22;487;50.126;8.698;2022-11-20T20:49:46;6.70;1.00
997;DHT22;487;50.126;8.698;2022-11-20T20:52:15;6.70;1.00
997;DHT22;487;50.126;8.698;2022-11-20T20:54:43;6.70;1.00
997;DHT22;487;50.126;8.698;2022-11-20T20:57:11;6.70;1.00
997;DHT22;487;50.126;8.698;2022-11-20T20:59:39;6.70;1.00
997;DHT22;487;50.126;8.698;2022-11-20T21:02:08;6.70;1.00
997;DHT22;487;50.126;8.698;2022-11-20T21:04:36;6.70;1.00
997;DHT22;487;50.126;8.698;2022-11-20T21:07:04;6.70;1.00
997;DHT22;487;50.126;8.698;2022-11-20T21:09:33;6.80;99.90
997;DHT22;487;50.126;8.698;2022-11-20T21:12:02;6.80;99.90
997;DHT22;487;50.126;8.698;2022-11-20T21:14:30;6.80;99.90
997;DHT22;487;50.126;8.698;2022-11-20T21:16:58;6.80;99.90
997;DHT22;487;50.126;8.698;2022-11-20T21:19:26;6.80;99.90
997;DHT22;487;50.126;8.698;2022-11-20T21:21:54;6.80;99.90
997;DHT22;487;50.126;8.698;2022-11-20T21:24:30;6.80;99.90
997;DHT22;487;50.126;8.698;2022-11-20T21:27:00;6.80;99.90
997;DHT22;487;50.126;8.698;2022-11-20T21:29:29;6.80;99.90
997;DHT22;487;50.126;8.698;2022-11-20T21:31:58;6.80;99.90
997;DHT22;487;50.126;8.698;2022-11-20T21:34:25;6.70;99.90
997;DHT22;487;50.126;8.698;2022-11-20T21:36:53;6.70;99.90
997;DHT22;487;50.126;8.698;2022-11-20T21:39:21;6.70;99.90
997;DHT22;487;50.126;8.698;2022-11-20T21:41:49;6.70;99.90